createdAt,value
2022-08-11T00:01:19.359Z,0.98
2022-08-11T00:03:57.684Z,1.10
2022-08-11T00:06:34.694Z,1.10
2022-08-11T00:09:03.821Z,1.15
2022-08-11T00:11:58.565Z,1.00
2022-08-11T00:14:36.073Z,1.13
2022-08-11T00:17:10.491Z,1.07
2022-08-11T00:20:14.977Z,0.95
2022-08-11T00:22:40.133Z,0.90
2022-08-11T00:25:25.516Z,0.90
2022-08-11T00:27:52.104Z,0.85
2022-08-11T00:30:18.688Z,1.17
2022-08-11T00:32:54.397Z,1.00
2022-08-11T00:35:51.966Z,1.10
2022-08-11T00:38:14.148Z,1.10
2022-08-11T00:40:59.408Z,1.00
2022-08-11T00:43:42.896Z,1.20
2022-08-11T00:46:16.352Z,1.17
2022-08-11T00:48:59.600Z,1.00
2022-08-11T00:52:05.517Z,1.00
2022-08-11T00:54:44.971Z,0.65
2022-08-11T00:57:38.537Z,1.10
2022-08-11T01:00:13.467Z,0.82
2022-08-11T01:03:17.957Z,1.10
2022-08-11T01:06:13.259Z,1.30
2022-08-11T01:08:57.428Z,0.90
2022-08-11T01:11:55.141Z,0.97
2022-08-11T01:15:00.028Z,1.02
2022-08-11T01:18:13.896Z,0.98
2022-08-11T01:20:49.725Z,0.98
2022-08-11T01:23:47.798Z,0.80
2022-08-11T01:26:49.575Z,0.90
2022-08-11T01:29:36.735Z,0.98
2022-08-11T01:32:23.330Z,1.10
2022-08-11T01:35:29.721Z,1.10
2022-08-11T01:38:17.865Z,0.95
2022-08-11T01:41:23.897Z,0.87
2022-08-11T01:44:27.596Z,0.95
2022-08-11T01:47:35.233Z,0.80
2022-08-11T01:50:12.572Z,1.00
2022-08-11T01:53:04.799Z,0.90
2022-08-11T01:55:55.242Z,0.90
2022-08-11T01:58:50.118Z,1.00
2022-08-11T02:01:40.851Z,1.10
2022-08-11T02:04:29.944Z,0.98
2022-08-11T02:07:11.420Z,1.20
2022-08-11T02:09:49.907Z,1.30
2022-08-11T02:12:35.871Z,0.88
2022-08-11T02:15:27.551Z,0.88
2022-08-11T02:18:20.163Z,1.10
2022-08-11T02:21:18.856Z,1.10
2022-08-11T02:24:05.990Z,1.10
2022-08-11T02:26:42.021Z,1.20
2022-08-11T02:29:42.145Z,1.25
2022-08-11T02:32:41.750Z,1.17
2022-08-11T02:35:16.406Z,1.00
2022-08-11T02:38:01.164Z,1.23
2022-08-11T02:40:46.100Z,1.20
2022-08-11T02:43:27.745Z,1.02
2022-08-11T02:46:18.054Z,1.38
2022-08-11T02:49:17.731Z,1.00
2022-08-11T02:52:14.196Z,0.93
2022-08-11T02:54:48.137Z,1.38
2022-08-11T02:57:59.327Z,1.30
2022-08-11T03:00:29.610Z,1.20
2022-08-11T03:03:37.368Z,0.98
2022-08-11T03:06:24.342Z,1.10
2022-08-11T03:09:03.060Z,1.15
2022-08-11T03:12:15.192Z,1.40
2022-08-11T03:15:12.808Z,1.40
2022-08-11T03:18:03.159Z,0.95
2022-08-11T03:20:43.647Z,1.20
2022-08-11T03:23:19.898Z,0.98
2022-08-11T03:25:56.051Z,1.10
2022-08-11T03:28:51.587Z,0.70
2022-08-11T03:31:29.694Z,1.05
2022-08-11T03:34:08.385Z,1.10
2022-08-11T03:37:14.911Z,1.25
2022-08-11T03:40:09.048Z,0.90
2022-08-11T03:42:44.024Z,1.38
2022-08-11T03:45:31.719Z,1.00
2022-08-11T03:48:23.071Z,1.20
2022-08-11T03:51:12.693Z,1.15
2022-08-11T03:53:55.204Z,1.10
2022-08-11T03:56:45.616Z,1.10
2022-08-11T03:59:51.178Z,1.27
2022-08-11T04:02:41.614Z,1.50
2022-08-11T04:05:16.967Z,1.02
2022-08-11T04:07:49.168Z,0.98
2022-08-11T04:10:33.917Z,1.10
2022-08-11T04:13:26.826Z,1.20
2022-08-11T04:16:25.606Z,1.20
2022-08-11T04:19:14.264Z,1.10
2022-08-11T04:22:20.780Z,1.33
2022-08-11T04:25:12.077Z,1.20
2022-08-11T04:28:06.462Z,1.20
2022-08-11T04:30:58.847Z,1.17
2022-08-11T04:33:56.078Z,1.35
2022-08-11T04:37:17.103Z,1.00
2022-08-11T04:40:25.521Z,1.30
2022-08-11T04:43:19.471Z,1.52
2022-08-11T04:46:00.955Z,1.38
2022-08-11T04:49:08.157Z,1.25
2022-08-11T04:52:25.633Z,1.70
2022-08-11T04:55:44.976Z,1.50
2022-08-11T04:58:48.601Z,1.40
2022-08-11T05:01:37.683Z,1.50
2022-08-11T05:04:39.635Z,1.65
2022-08-11T05:07:40.141Z,1.67
2022-08-11T05:10:34.488Z,1.50
2022-08-11T05:13:30.774Z,1.90
2022-08-11T05:16:27.527Z,1.60
2022-08-11T05:19:16.374Z,1.17
2022-08-11T05:22:12.892Z,1.60
2022-08-11T05:26:43.388Z,1.60
2022-08-11T05:28:40.737Z,1.58
2022-08-11T05:31:32.664Z,1.60
2022-08-11T05:34:22.005Z,1.90
2022-08-11T05:36:56.421Z,1.98
2022-08-11T05:39:52.911Z,2.22
2022-08-11T05:42:41.767Z,2.00
2022-08-11T05:45:57.303Z,2.00
2022-08-11T05:48:40.916Z,2.22
2022-08-11T05:51:30.292Z,1.88
2022-08-11T05:54:28.806Z,1.80
2022-08-11T05:57:02.297Z,2.38
2022-08-11T05:59:31.356Z,2.83
2022-08-11T06:02:07.343Z,2.47
2022-08-11T06:04:34.978Z,2.13
2022-08-11T06:07:09.462Z,2.20
2022-08-11T06:09:37.243Z,3.15
2022-08-11T06:12:22.656Z,2.87
2022-08-11T06:14:57.398Z,2.97
2022-08-11T06:17:26.393Z,2.83
2022-08-11T06:20:07.592Z,2.78
2022-08-11T06:22:34.822Z,2.85
2022-08-11T06:25:02.682Z,2.87
2022-08-11T06:27:35.521Z,3.00
2022-08-11T06:30:13.406Z,3.20
2022-08-11T06:32:44.428Z,2.58
2022-08-11T06:35:46.778Z,2.83
2022-08-11T06:38:26.318Z,2.73
2022-08-11T06:41:26.847Z,3.45
2022-08-11T06:44:06.663Z,3.30
2022-08-11T06:46:39.455Z,2.50
2022-08-11T06:49:31.323Z,2.85
2022-08-11T06:52:02.949Z,3.17
2022-08-11T06:54:36.268Z,3.30
2022-08-11T06:57:31.947Z,3.25
2022-08-11T07:00:28.301Z,2.88
2022-08-11T07:03:03.316Z,3.42
2022-08-11T07:05:49.852Z,3.13
2022-08-11T07:08:53.914Z,3.20
2022-08-11T07:12:05.032Z,3.03
2022-08-11T07:14:51.740Z,3.13
2022-08-11T07:17:25.687Z,2.95
2022-08-11T07:20:14.828Z,2.90
2022-08-11T07:23:02.408Z,2.90
2022-08-11T07:25:50.530Z,2.95
2022-08-11T07:28:47.135Z,3.08
2022-08-11T07:31:29.210Z,3.20
2022-08-11T07:34:11.142Z,3.07
2022-08-11T07:36:45.892Z,2.80
2022-08-11T07:39:39.109Z,2.97
2022-08-11T07:42:09.872Z,2.60
2022-08-11T07:44:59.920Z,2.78
2022-08-11T07:47:46.608Z,2.97
2022-08-11T07:50:32.363Z,2.40
2022-08-11T07:53:00.721Z,2.83
2022-08-11T07:55:51.180Z,3.35
2022-08-11T07:58:38.776Z,2.78
2022-08-11T08:01:37.013Z,4.30
2022-08-11T08:04:24.460Z,3.60
2022-08-11T08:07:10.338Z,2.80
2022-08-11T08:09:56.471Z,3.17
2022-08-11T08:12:44.327Z,3.50
2022-08-11T08:15:31.678Z,3.10
2022-08-11T08:18:09.745Z,3.42
2022-08-11T08:20:50.095Z,3.40
2022-08-11T08:23:18.727Z,2.97
2022-08-11T08:25:46.325Z,3.25
2022-08-11T08:28:16.396Z,3.13
2022-08-11T08:30:51.274Z,3.70
2022-08-11T08:33:26.303Z,3.00
2022-08-11T08:36:11.810Z,3.40
2022-08-11T08:38:42.715Z,3.22
2022-08-11T08:41:13.076Z,3.20
2022-08-11T08:43:48.763Z,3.10
2022-08-11T08:46:19.148Z,3.05
2022-08-11T08:48:48.000Z,2.95
2022-08-11T08:51:54.805Z,3.13
2022-08-11T08:54:25.542Z,3.70
2022-08-11T08:56:56.143Z,3.45
2022-08-11T08:59:26.591Z,3.10
2022-08-11T09:02:13.392Z,2.90
2022-08-11T09:04:42.593Z,3.00
2022-08-11T09:07:15.428Z,2.63
2022-08-11T09:09:50.807Z,2.60
2022-08-11T09:12:38.122Z,2.97
2022-08-11T09:15:09.270Z,2.92
2022-08-11T09:17:40.892Z,3.15
2022-08-11T09:20:13.840Z,3.17
2022-08-11T09:26:12.395Z,3.10
2022-08-11T09:28:39.524Z,2.90
2022-08-11T09:31:07.039Z,3.08
2022-08-11T09:33:34.227Z,2.70
2022-08-11T09:36:24.378Z,2.70
2022-08-11T09:39:11.674Z,2.88
2022-08-11T09:42:00.758Z,2.63
2022-08-11T09:44:46.690Z,3.10
2022-08-11T09:47:30.190Z,3.43
2022-08-11T09:50:01.563Z,2.75
2022-08-11T09:52:36.483Z,3.13
2022-08-11T09:55:10.790Z,2.80
2022-08-11T09:57:59.207Z,3.17
2022-08-11T10:00:37.797Z,3.00
2022-08-11T10:03:12.262Z,2.75
2022-08-11T10:06:05.869Z,3.40
2022-08-11T10:08:38.066Z,3.13
2022-08-11T10:11:08.780Z,2.55
2022-08-11T10:14:33.664Z,2.80
2022-08-11T10:16:49.498Z,2.10
2022-08-11T10:19:19.320Z,2.58
2022-08-11T10:22:09.469Z,2.80
2022-08-11T10:24:55.790Z,2.75
2022-08-11T10:27:27.228Z,2.53
2022-08-11T10:30:25.836Z,2.58
2022-08-11T10:33:18.972Z,2.72
2022-08-11T10:36:00.174Z,2.60
2022-08-11T10:38:27.757Z,2.25
2022-08-11T10:41:14.015Z,2.33
2022-08-11T10:44:01.497Z,2.60
2022-08-11T10:46:46.877Z,2.53
2022-08-11T10:49:13.658Z,2.40
2022-08-11T10:51:59.064Z,2.40
2022-08-11T10:54:44.884Z,2.30
2022-08-11T10:57:30.785Z,2.70
2022-08-11T10:59:58.149Z,1.95
2022-08-11T11:02:27.295Z,2.67
2022-08-11T11:05:09.476Z,2.40
2022-08-11T11:07:56.396Z,2.30
2022-08-11T11:10:22.902Z,2.47
2022-08-11T11:13:15.661Z,1.80
2022-08-11T11:16:04.779Z,2.10
2022-08-11T11:18:36.009Z,2.30
2022-08-11T11:21:04.357Z,2.23
2022-08-11T11:24:01.776Z,2.22
2022-08-11T11:26:43.545Z,2.28
2022-08-11T11:29:27.553Z,2.50
2022-08-11T11:32:22.795Z,2.30
2022-08-11T11:35:04.271Z,2.17
2022-08-11T11:37:35.661Z,1.92
2022-08-11T11:40:10.657Z,1.80
2022-08-11T11:42:42.070Z,2.20
2022-08-11T11:45:10.093Z,1.90
2022-08-11T11:47:54.185Z,1.80
2022-08-11T11:50:32.953Z,1.90
2022-08-11T11:53:01.688Z,1.77
2022-08-11T11:55:29.608Z,1.95
2022-08-11T11:58:18.750Z,2.10
2022-08-11T12:01:05.332Z,2.40
2022-08-11T12:03:33.716Z,1.98
2022-08-11T12:06:01.004Z,1.80
2022-08-11T12:08:29.086Z,1.85
2022-08-11T12:11:17.982Z,2.15
2022-08-11T12:13:50.424Z,2.10
2022-08-11T12:16:32.826Z,1.70
2022-08-11T12:19:05.817Z,1.98
2022-08-11T12:21:34.495Z,2.13
2022-08-11T12:24:21.779Z,1.85
2022-08-11T12:26:54.395Z,1.70
2022-08-11T12:29:39.976Z,2.00
2022-08-11T12:32:12.911Z,1.77
2022-08-11T12:34:39.600Z,1.70
2022-08-11T12:37:13.659Z,1.75
2022-08-11T12:40:16.003Z,1.47
2022-08-11T12:45:41.614Z,2.15
2022-08-11T12:48:58.776Z,1.55
2022-08-11T12:52:13.650Z,1.60
2022-08-11T12:54:58.701Z,1.70
2022-08-11T12:58:00.418Z,1.80
2022-08-11T13:00:46.782Z,1.50
2022-08-11T13:03:32.869Z,1.60
2022-08-11T13:06:04.600Z,1.70
2022-08-11T13:08:35.498Z,2.50
2022-08-11T13:11:22.312Z,1.60
2022-08-11T13:13:52.919Z,1.63
2022-08-11T13:16:24.400Z,1.60
2022-08-11T13:18:53.434Z,1.45
2022-08-11T13:21:21.788Z,1.40
2022-08-11T13:23:59.890Z,1.48
2022-08-11T13:26:47.466Z,1.63
2022-08-11T13:29:21.875Z,1.40
2022-08-11T13:31:49.197Z,1.40
2022-08-11T13:34:21.278Z,1.40
2022-08-11T13:36:53.326Z,1.38
2022-08-11T13:39:25.136Z,1.40
2022-08-11T13:41:56.403Z,1.10
2022-08-11T13:44:27.265Z,1.50
2022-08-11T13:46:59.319Z,1.37
2022-08-11T13:49:26.355Z,1.35
2022-08-11T13:51:55.216Z,1.23
2022-08-11T13:54:24.290Z,1.48
2022-08-11T13:56:56.204Z,1.33
2022-08-11T13:59:29.968Z,1.43
2022-08-11T14:02:21.995Z,1.42
2022-08-11T14:04:58.123Z,2.00
2022-08-11T14:07:35.216Z,1.50
2022-08-11T14:10:04.404Z,1.73
2022-08-11T14:12:53.376Z,1.40
2022-08-11T14:15:31.870Z,1.33
2022-08-11T14:18:05.091Z,1.50
2022-08-11T14:20:54.079Z,1.48
2022-08-11T14:23:42.323Z,1.67
2022-08-11T14:26:28.885Z,1.30
2022-08-11T14:29:00.772Z,1.30
2022-08-11T14:31:29.595Z,1.50
2022-08-11T14:34:02.344Z,1.27
2022-08-11T14:36:32.864Z,1.52
2022-08-11T14:39:01.998Z,1.30
2022-08-11T14:42:11.637Z,1.10
2022-08-11T14:44:54.888Z,1.50
2022-08-11T14:47:25.407Z,1.00
2022-08-11T14:50:04.957Z,1.27
2022-08-11T14:52:41.232Z,1.30
2022-08-11T14:55:27.212Z,1.58
2022-08-11T14:57:57.025Z,1.40
2022-08-11T15:00:24.963Z,1.40
2022-08-11T15:03:11.049Z,1.33
2022-08-11T15:05:56.092Z,1.30
2022-08-11T15:08:47.172Z,1.20
2022-08-11T15:11:34.656Z,1.50
2022-08-11T15:14:02.996Z,1.33
2022-08-11T15:16:48.600Z,1.33
2022-08-11T15:19:16.927Z,1.60
2022-08-11T15:22:02.021Z,1.25
2022-08-11T15:24:30.933Z,1.30
2022-08-11T15:27:17.993Z,1.00
2022-08-11T15:30:04.984Z,1.30
2022-08-11T15:32:50.794Z,1.30
2022-08-11T15:35:39.105Z,1.20
2022-08-11T15:38:11.576Z,1.10
2022-08-11T15:40:58.718Z,1.38
2022-08-11T15:43:47.888Z,1.05
2022-08-11T15:46:18.385Z,1.20
2022-08-11T15:48:50.401Z,1.13
2022-08-11T15:51:33.236Z,1.38
2022-08-11T15:54:08.553Z,1.20
2022-08-11T15:56:39.098Z,1.60
2022-08-11T15:59:42.092Z,1.33
2022-08-11T16:02:33.766Z,1.30
2022-08-11T16:05:04.327Z,1.60
2022-08-11T16:07:36.889Z,1.30
2022-08-11T16:10:18.696Z,1.30
2022-08-11T16:13:07.812Z,1.37
2022-08-11T16:15:59.011Z,1.38
2022-08-11T16:18:40.542Z,1.00
2022-08-11T16:21:34.465Z,1.05
2022-08-11T16:24:06.310Z,1.10
2022-08-11T16:27:07.748Z,1.30
2022-08-11T16:29:25.346Z,1.30
2022-08-11T16:32:13.347Z,1.10
2022-08-11T16:34:59.087Z,1.10
2022-08-11T16:37:45.456Z,1.08
2022-08-11T16:40:13.223Z,1.33
2022-08-11T16:43:06.318Z,1.25
2022-08-11T16:45:56.454Z,1.38
2022-08-11T16:48:33.435Z,1.20
2022-08-11T16:51:04.696Z,1.30
2022-08-11T16:54:00.150Z,1.00
2022-08-11T16:56:23.224Z,1.10
2022-08-11T17:01:48.945Z,1.10
2022-08-11T17:04:48.834Z,1.30
2022-08-11T17:07:42.156Z,1.13
2022-08-11T17:10:52.755Z,1.10
2022-08-11T17:13:40.112Z,1.00
2022-08-11T17:16:12.825Z,1.20
2022-08-11T17:18:48.908Z,1.05
2022-08-11T17:21:20.305Z,1.03
2022-08-11T17:24:05.056Z,1.17
2022-08-11T17:26:57.050Z,1.20
2022-08-11T17:29:54.837Z,1.10
2022-08-11T17:32:57.228Z,1.17
2022-08-11T17:35:38.491Z,1.10
2022-08-11T17:38:12.514Z,1.02
2022-08-11T17:41:03.156Z,0.90
2022-08-11T17:43:49.934Z,0.90
2022-08-11T17:46:35.746Z,0.90
2022-08-11T17:49:03.652Z,1.00
2022-08-11T17:51:49.543Z,1.05
2022-08-11T17:54:34.829Z,0.90
2022-08-11T17:57:21.981Z,1.30
2022-08-11T17:59:53.876Z,1.00
2022-08-11T18:02:43.583Z,1.20
2022-08-11T18:05:13.603Z,1.10
2022-08-11T18:08:01.848Z,1.50
2022-08-11T18:10:49.471Z,1.02
2022-08-11T18:13:37.615Z,1.00
2022-08-11T18:16:23.225Z,1.20
2022-08-11T18:19:08.357Z,0.80
2022-08-11T18:22:10.973Z,0.82
2022-08-11T18:25:05.214Z,1.10
2022-08-11T18:27:53.222Z,1.10
2022-08-11T18:30:38.476Z,0.90
2022-08-11T18:33:50.639Z,0.90
2022-08-11T18:36:37.641Z,0.85
2022-08-11T18:39:24.987Z,1.13
2022-08-11T18:42:14.912Z,0.80
2022-08-11T18:45:07.796Z,0.60
2022-08-11T18:47:57.065Z,0.90
2022-08-11T18:50:42.999Z,0.85
2022-08-11T18:53:41.164Z,0.80
2022-08-11T18:56:26.341Z,0.80
2022-08-11T18:59:12.320Z,0.90
2022-08-11T19:01:57.988Z,0.80
2022-08-11T19:04:44.289Z,1.02
2022-08-11T19:07:31.081Z,0.82
2022-08-11T19:10:17.781Z,0.70
2022-08-11T19:13:05.031Z,0.90
2022-08-11T19:15:51.245Z,1.00
2022-08-11T19:18:39.591Z,0.68
2022-08-11T19:21:26.344Z,0.60
2022-08-11T19:24:15.005Z,0.73
2022-08-11T19:27:01.854Z,0.80
2022-08-11T19:30:09.095Z,0.77
2022-08-11T19:32:53.965Z,0.60
2022-08-11T19:35:39.332Z,0.70
2022-08-11T19:38:24.606Z,0.63
2022-08-11T19:41:11.584Z,0.70
2022-08-11T19:43:57.948Z,0.73
2022-08-11T19:46:44.270Z,0.80
2022-08-11T19:49:30.292Z,0.80
2022-08-11T19:52:17.391Z,0.85
2022-08-11T19:55:03.243Z,0.70
2022-08-11T19:57:50.214Z,0.80
2022-08-11T20:00:38.828Z,0.80
2022-08-11T20:03:27.627Z,0.70
2022-08-11T20:06:15.592Z,0.80
2022-08-11T20:09:04.009Z,1.47
2022-08-11T20:11:55.329Z,0.85
2022-08-11T20:14:43.120Z,0.70
2022-08-11T20:17:32.312Z,0.60
2022-08-11T20:20:19.772Z,0.90
2022-08-11T20:23:08.168Z,0.83
2022-08-11T20:26:03.392Z,0.75
2022-08-11T20:28:55.965Z,0.75
2022-08-11T20:31:42.612Z,0.80
2022-08-11T20:34:29.649Z,0.68
2022-08-11T20:37:18.423Z,0.60
2022-08-11T20:40:04.873Z,0.60
2022-08-11T20:42:52.181Z,0.98
2022-08-11T20:45:38.439Z,0.85
2022-08-11T20:48:41.998Z,1.35
2022-08-11T20:51:27.803Z,0.70
2022-08-11T20:54:20.237Z,0.70
2022-08-11T20:57:57.796Z,1.38
2022-08-11T21:00:39.468Z,0.75
2022-08-11T21:03:36.044Z,0.70
2022-08-11T21:06:33.017Z,1.00
2022-08-11T21:09:25.066Z,0.88
2022-08-11T21:12:30.997Z,0.60
2022-08-11T21:15:38.945Z,0.68
2022-08-11T21:18:28.212Z,0.68
2022-08-11T21:21:18.317Z,0.93
2022-08-11T21:24:06.289Z,0.50
2022-08-11T21:26:54.241Z,0.77
2022-08-11T21:29:40.330Z,0.90
2022-08-11T21:32:25.712Z,0.73
2022-08-11T21:35:12.001Z,1.07
2022-08-11T21:37:57.994Z,0.75
2022-08-11T21:40:46.139Z,0.80
2022-08-11T21:43:34.095Z,1.10
2022-08-11T21:46:21.371Z,0.90
2022-08-11T21:49:07.697Z,0.80
2022-08-11T21:51:52.700Z,0.90
2022-08-11T21:54:38.860Z,0.98
2022-08-11T21:57:25.356Z,0.95
2022-08-11T22:00:16.818Z,0.90
2022-08-11T22:03:04.177Z,0.97
2022-08-11T22:05:52.478Z,0.93
2022-08-11T22:08:38.221Z,0.90
2022-08-11T22:11:32.004Z,0.90
2022-08-11T22:14:18.128Z,0.75
2022-08-11T22:17:02.989Z,0.97
2022-08-11T22:19:49.170Z,0.98
2022-08-11T22:22:34.493Z,0.93
2022-08-11T22:25:38.614Z,0.60
2022-08-11T22:28:23.953Z,0.90
2022-08-11T22:31:09.447Z,1.10
2022-08-11T22:34:02.963Z,0.80
2022-08-11T22:36:49.448Z,0.88
2022-08-11T22:39:35.711Z,0.85
2022-08-11T22:42:32.253Z,1.27
2022-08-11T22:45:19.588Z,1.00
2022-08-11T22:48:07.722Z,0.90
2022-08-11T22:50:55.292Z,1.17
2022-08-11T22:53:57.150Z,0.90
2022-08-11T22:56:48.468Z,0.93
2022-08-11T22:59:34.636Z,0.83
2022-08-11T23:02:20.949Z,0.98
2022-08-11T23:05:07.987Z,1.50
2022-08-11T23:07:54.766Z,1.00
2022-08-11T23:10:41.742Z,1.10
2022-08-11T23:13:28.104Z,1.00
2022-08-11T23:16:14.427Z,0.90
2022-08-11T23:19:00.865Z,0.80
2022-08-11T23:21:46.771Z,0.90
2022-08-11T23:24:32.264Z,0.80
2022-08-11T23:27:19.122Z,1.00
2022-08-11T23:30:06.689Z,0.98
2022-08-11T23:32:51.925Z,1.08
2022-08-11T23:35:54.011Z,1.05
2022-08-11T23:38:43.271Z,0.80
2022-08-11T23:41:28.759Z,0.83
2022-08-11T23:44:14.294Z,1.00
2022-08-11T23:47:00.974Z,1.20
2022-08-11T23:49:47.108Z,1.13
2022-08-11T23:52:34.071Z,1.27
2022-08-11T23:55:19.146Z,0.90
2022-08-11T23:58:04.558Z,1.10
